KVBG

Vandenberg Air Force Base

Airport
ICAO code
KVBG
IATA Code
VBG
Summary
ICAO Region
NAM
ICAO Territory
Location

, California

Serving
Lompoc
Elevation
369 ft
Coordinates
34° 44' 14" N , 120° 35' 4" W
Metar
KVBG 181055Z AUTO 00000KT 10SM CLR 11/10 A2998 RMK AO2 SLP155 T01140098 TSNO $

Runways

Designator Length Width Surface Rops
12/30 4572 61 CON Yes/Yes

Airport map

Aerial View

SKYbrary Partners:

Safety knowledge contributed by: